sensor_id;sensor_type;location;lat;lon;timestamp;temperature;humidity
5846;DHT22;2949;50.778;7.094;2022-12-31T00:01:18;12.70;99.90
5846;DHT22;2949;50.778;7.094;2022-12-31T00:03:44;12.70;99.90
5846;DHT22;2949;50.778;7.094;2022-12-31T00:06:27;12.70;99.90
5846;DHT22;2949;50.778;7.094;2022-12-31T00:08:55;12.70;99.90
5846;DHT22;2949;50.778;7.094;2022-12-31T00:11:23;12.70;99.90
5846;DHT22;2949;50.778;7.094;2022-12-31T00:13:49;12.70;99.90
5846;DHT22;2949;50.778;7.094;2022-12-31T00:16:24;12.80;99.90
5846;DHT22;2949;50.778;7.094;2022-12-31T00:18:52;12.80;99.90
5846;DHT22;2949;50.778;7.094;2022-12-31T00:21:19;12.90;99.90
5846;DHT22;2949;50.778;7.094;2022-12-31T00:23:45;13.00;99.90
5846;DHT22;2949;50.778;7.094;2022-12-31T00:26:13;13.10;99.90
5846;DHT22;2949;50.778;7.094;2022-12-31T00:28:40;13.20;99.90
5846;DHT22;2949;50.778;7.094;2022-12-31T00:31:08;13.30;99.90
5846;DHT22;2949;50.778;7.094;2022-12-31T00:33:34;13.30;99.90
5846;DHT22;2949;50.778;7.094;2022-12-31T00:36:21;13.40;99.90
5846;DHT22;2949;50.778;7.094;2022-12-31T00:38:50;13.40;99.90
5846;DHT22;2949;50.778;7.094;2022-12-31T00:41:17;13.50;99.90
5846;DHT22;2949;50.778;7.094;2022-12-31T00:43:44;13.60;99.90
5846;DHT22;2949;50.778;7.094;2022-12-31T00:46:11;13.60;99.90
5846;DHT22;2949;50.778;7.094;2022-12-31T00:48:37;13.60;99.90
5846;DHT22;2949;50.778;7.094;2022-12-31T00:51:05;13.70;99.90
5846;DHT22;2949;50.778;7.094;2022-12-31T00:53:31;13.70;99.90
5846;DHT22;2949;50.778;7.094;2022-12-31T00:56:05;13.80;99.90
5846;DHT22;2949;50.778;7.094;2022-12-31T00:58:32;13.80;99.90
5846;DHT22;2949;50.778;7.094;2022-12-31T01:00:57;13.90;99.90
5846;DHT22;2949;50.778;7.094;2022-12-31T01:03:24;14.00;99.90
5846;DHT22;2949;50.778;7.094;2022-12-31T01:05:51;13.90;99.90
5846;DHT22;2949;50.778;7.094;2022-12-31T01:08:17;14.00;99.90
5846;DHT22;2949;50.778;7.094;2022-12-31T01:10:50;14.00;99.90
5846;DHT22;2949;50.778;7.094;2022-12-31T01:13:35;14.10;99.90
5846;DHT22;2949;50.778;7.094;2022-12-31T01:16:12;14.10;99.90
5846;DHT22;2949;50.778;7.094;2022-12-31T01:18:38;14.20;99.90
5846;DHT22;2949;50.778;7.094;2022-12-31T01:21:06;14.10;99.90
5846;DHT22;2949;50.778;7.094;2022-12-31T01:23:32;14.10;99.90
5846;DHT22;2949;50.778;7.094;2022-12-31T01:26:03;14.10;99.90
5846;DHT22;2949;50.778;7.094;2022-12-31T01:28:29;14.10;99.90
5846;DHT22;2949;50.778;7.094;2022-12-31T01:30:55;14.10;99.90
5846;DHT22;2949;50.778;7.094;2022-12-31T01:33:21;14.20;99.90
5846;DHT22;2949;50.778;7.094;2022-12-31T01:35:47;14.20;99.90
5846;DHT22;2949;50.778;7.094;2022-12-31T01:38:13;14.10;99.90
5846;DHT22;2949;50.778;7.094;2022-12-31T01:40:40;14.10;99.90
5846;DHT22;2949;50.778;7.094;2022-12-31T01:43:14;14.10;99.90
5846;DHT22;2949;50.778;7.094;2022-12-31T01:45:41;14.10;99.90
5846;DHT22;2949;50.778;7.094;2022-12-31T01:48:09;14.20;99.90
5846;DHT22;2949;50.778;7.094;2022-12-31T01:50:36;14.20;99.90
5846;DHT22;2949;50.778;7.094;2022-12-31T01:53:04;14.30;99.90
5846;DHT22;2949;50.778;7.094;2022-12-31T01:58:10;14.30;99.90
5846;DHT22;2949;50.778;7.094;2022-12-31T02:00:37;14.30;99.90
5846;DHT22;2949;50.778;7.094;2022-12-31T02:03:04;14.40;99.90
5846;DHT22;2949;50.778;7.094;2022-12-31T02:05:52;14.50;99.90
5846;DHT22;2949;50.778;7.094;2022-12-31T02:08:20;14.50;99.90
5846;DHT22;2949;50.778;7.094;2022-12-31T02:10:45;14.50;99.90
5846;DHT22;2949;50.778;7.094;2022-12-31T02:13:11;14.50;99.90
5846;DHT22;2949;50.778;7.094;2022-12-31T02:18:35;14.50;99.90
5846;DHT22;2949;50.778;7.094;2022-12-31T02:21:11;14.60;99.90
5846;DHT22;2949;50.778;7.094;2022-12-31T02:35:31;14.70;99.90
5846;DHT22;2949;50.778;7.094;2022-12-31T02:38:04;14.80;99.90
5846;DHT22;2949;50.778;7.094;2022-12-31T02:40:34;14.80;99.90
5846;DHT22;2949;50.778;7.094;2022-12-31T02:43:01;15.00;99.90
5846;DHT22;2949;50.778;7.094;2022-12-31T02:45:34;15.00;99.90
5846;DHT22;2949;50.778;7.094;2022-12-31T02:51:16;15.20;99.90
5846;DHT22;2949;50.778;7.094;2022-12-31T02:57:33;15.30;99.90
5846;DHT22;2949;50.778;7.094;2022-12-31T03:00:05;15.30;99.90
5846;DHT22;2949;50.778;7.094;2022-12-31T03:02:50;15.40;99.90
5846;DHT22;2949;50.778;7.094;2022-12-31T03:05:21;15.40;99.90
5846;DHT22;2949;50.778;7.094;2022-12-31T03:07:47;15.40;99.90
5846;DHT22;2949;50.778;7.094;2022-12-31T03:10:13;15.40;99.90
5846;DHT22;2949;50.778;7.094;2022-12-31T03:12:42;15.50;99.90
5846;DHT22;2949;50.778;7.094;2022-12-31T03:15:26;15.50;99.90
5846;DHT22;2949;50.778;7.094;2022-12-31T03:17:59;15.50;99.90
5846;DHT22;2949;50.778;7.094;2022-12-31T03:20:39;15.50;99.90
5846;DHT22;2949;50.778;7.094;2022-12-31T03:23:29;15.50;99.90
5846;DHT22;2949;50.778;7.094;2022-12-31T03:25:56;15.40;99.90
5846;DHT22;2949;50.778;7.094;2022-12-31T03:28:25;15.40;99.90
5846;DHT22;2949;50.778;7.094;2022-12-31T03:30:54;15.40;99.90
5846;DHT22;2949;50.778;7.094;2022-12-31T03:33:21;15.40;99.90
5846;DHT22;2949;50.778;7.094;2022-12-31T03:35:48;15.30;99.90
5846;DHT22;2949;50.778;7.094;2022-12-31T03:38:15;15.40;99.90
5846;DHT22;2949;50.778;7.094;2022-12-31T03:40:44;15.30;99.90
5846;DHT22;2949;50.778;7.094;2022-12-31T03:43:10;15.30;99.90
5846;DHT22;2949;50.778;7.094;2022-12-31T03:45:36;15.30;99.90
5846;DHT22;2949;50.778;7.094;2022-12-31T03:48:03;15.20;99.90
5846;DHT22;2949;50.778;7.094;2022-12-31T03:50:30;15.30;99.90
5846;DHT22;2949;50.778;7.094;2022-12-31T03:52:57;15.40;99.90
5846;DHT22;2949;50.778;7.094;2022-12-31T03:55:24;15.50;99.90
5846;DHT22;2949;50.778;7.094;2022-12-31T03:57:50;15.50;99.90
5846;DHT22;2949;50.778;7.094;2022-12-31T04:00:18;15.50;99.90
5846;DHT22;2949;50.778;7.094;2022-12-31T04:02:47;15.50;99.90
5846;DHT22;2949;50.778;7.094;2022-12-31T04:05:16;15.40;99.90
5846;DHT22;2949;50.778;7.094;2022-12-31T04:07:42;15.40;99.90
5846;DHT22;2949;50.778;7.094;2022-12-31T04:10:11;15.40;99.90
5846;DHT22;2949;50.778;7.094;2022-12-31T04:12:36;15.50;99.90
5846;DHT22;2949;50.778;7.094;2022-12-31T04:15:03;15.50;99.90
5846;DHT22;2949;50.778;7.094;2022-12-31T04:17:30;15.50;99.90
5846;DHT22;2949;50.778;7.094;2022-12-31T04:19:56;15.50;99.90
5846;DHT22;2949;50.778;7.094;2022-12-31T04:22:21;15.50;99.90
5846;DHT22;2949;50.778;7.094;2022-12-31T04:24:47;15.50;99.90
5846;DHT22;2949;50.778;7.094;2022-12-31T04:27:13;15.50;99.90
5846;DHT22;2949;50.778;7.094;2022-12-31T04:29:39;15.50;99.90
5846;DHT22;2949;50.778;7.094;2022-12-31T04:32:06;15.50;99.90
5846;DHT22;2949;50.778;7.094;2022-12-31T04:34:34;15.50;99.90
5846;DHT22;2949;50.778;7.094;2022-12-31T04:37:00;15.40;99.90
5846;DHT22;2949;50.778;7.094;2022-12-31T04:39:26;15.40;99.90
5846;DHT22;2949;50.778;7.094;2022-12-31T04:41:54;15.40;99.90
5846;DHT22;2949;50.778;7.094;2022-12-31T04:44:20;15.30;99.90
5846;DHT22;2949;50.778;7.094;2022-12-31T04:46:46;15.30;99.90
5846;DHT22;2949;50.778;7.094;2022-12-31T04:49:13;15.40;99.90
5846;DHT22;2949;50.778;7.094;2022-12-31T04:51:39;15.50;99.90
5846;DHT22;2949;50.778;7.094;2022-12-31T04:54:05;15.60;99.90
5846;DHT22;2949;50.778;7.094;2022-12-31T04:56:31;15.80;99.90
5846;DHT22;2949;50.778;7.094;2022-12-31T04:58:57;15.60;99.90
5846;DHT22;2949;50.778;7.094;2022-12-31T05:01:23;15.70;99.90
5846;DHT22;2949;50.778;7.094;2022-12-31T05:03:49;15.70;99.90
5846;DHT22;2949;50.778;7.094;2022-12-31T05:06:20;15.60;99.90
5846;DHT22;2949;50.778;7.094;2022-12-31T05:08:47;15.70;99.90
5846;DHT22;2949;50.778;7.094;2022-12-31T05:11:14;15.60;99.90
5846;DHT22;2949;50.778;7.094;2022-12-31T05:13:39;15.70;99.90
5846;DHT22;2949;50.778;7.094;2022-12-31T05:16:06;15.70;99.90
5846;DHT22;2949;50.778;7.094;2022-12-31T05:18:33;15.80;99.90
5846;DHT22;2949;50.778;7.094;2022-12-31T05:20:59;15.90;99.90
5846;DHT22;2949;50.778;7.094;2022-12-31T05:23:25;16.00;99.90
5846;DHT22;2949;50.778;7.094;2022-12-31T05:25:51;16.00;99.90
5846;DHT22;2949;50.778;7.094;2022-12-31T05:28:18;16.00;99.90
5846;DHT22;2949;50.778;7.094;2022-12-31T05:30:46;16.10;99.90
5846;DHT22;2949;50.778;7.094;2022-12-31T05:33:12;16.20;99.90
5846;DHT22;2949;50.778;7.094;2022-12-31T05:35:37;16.20;99.90
5846;DHT22;2949;50.778;7.094;2022-12-31T05:38:03;16.10;99.90
5846;DHT22;2949;50.778;7.094;2022-12-31T05:40:29;16.10;99.90
5846;DHT22;2949;50.778;7.094;2022-12-31T05:42:54;16.10;99.90
5846;DHT22;2949;50.778;7.094;2022-12-31T05:45:20;16.10;99.90
5846;DHT22;2949;50.778;7.094;2022-12-31T05:47:46;16.10;99.90
5846;DHT22;2949;50.778;7.094;2022-12-31T05:50:13;16.10;99.90
5846;DHT22;2949;50.778;7.094;2022-12-31T05:52:44;16.10;99.90
5846;DHT22;2949;50.778;7.094;2022-12-31T05:55:10;16.30;99.90
5846;DHT22;2949;50.778;7.094;2022-12-31T05:57:37;16.20;99.90
5846;DHT22;2949;50.778;7.094;2022-12-31T06:00:04;16.10;99.90
5846;DHT22;2949;50.778;7.094;2022-12-31T06:02:30;16.10;99.90
5846;DHT22;2949;50.778;7.094;2022-12-31T06:04:56;16.10;99.90
5846;DHT22;2949;50.778;7.094;2022-12-31T06:07:22;16.10;99.90
5846;DHT22;2949;50.778;7.094;2022-12-31T06:09:48;16.00;99.90
5846;DHT22;2949;50.778;7.094;2022-12-31T06:12:13;16.00;99.90
5846;DHT22;2949;50.778;7.094;2022-12-31T06:14:39;16.00;99.90
5846;DHT22;2949;50.778;7.094;2022-12-31T06:17:05;16.10;99.90
5846;DHT22;2949;50.778;7.094;2022-12-31T06:19:30;16.00;99.90
5846;DHT22;2949;50.778;7.094;2022-12-31T06:21:56;16.00;99.90
5846;DHT22;2949;50.778;7.094;2022-12-31T06:24:22;16.00;99.90
5846;DHT22;2949;50.778;7.094;2022-12-31T06:26:48;15.90;99.90
5846;DHT22;2949;50.778;7.094;2022-12-31T06:29:14;15.90;99.90
5846;DHT22;2949;50.778;7.094;2022-12-31T06:31:39;16.00;99.90
5846;DHT22;2949;50.778;7.094;2022-12-31T06:34:05;16.00;99.90
5846;DHT22;2949;50.778;7.094;2022-12-31T06:36:31;16.10;99.90
5846;DHT22;2949;50.778;7.094;2022-12-31T06:38:56;16.10;99.90
5846;DHT22;2949;50.778;7.094;2022-12-31T06:41:22;16.20;99.90
5846;DHT22;2949;50.778;7.094;2022-12-31T06:43:48;16.20;99.90
5846;DHT22;2949;50.778;7.094;2022-12-31T06:46:16;16.30;99.90
5846;DHT22;2949;50.778;7.094;2022-12-31T06:48:43;16.20;99.90
5846;DHT22;2949;50.778;7.094;2022-12-31T06:51:14;16.20;99.90
5846;DHT22;2949;50.778;7.094;2022-12-31T06:53:41;16.20;99.90
5846;DHT22;2949;50.778;7.094;2022-12-31T06:56:12;16.30;99.90
5846;DHT22;2949;50.778;7.094;2022-12-31T06:58:38;16.30;99.90
5846;DHT22;2949;50.778;7.094;2022-12-31T07:01:26;16.30;99.90
5846;DHT22;2949;50.778;7.094;2022-12-31T07:04:10;16.40;99.90
5846;DHT22;2949;50.778;7.094;2022-12-31T07:06:48;16.40;99.90
5846;DHT22;2949;50.778;7.094;2022-12-31T07:09:25;16.40;99.90
5846;DHT22;2949;50.778;7.094;2022-12-31T07:14:52;16.30;99.90
5846;DHT22;2949;50.778;7.094;2022-12-31T07:17:35;16.30;99.90
5846;DHT22;2949;50.778;7.094;2022-12-31T07:20:11;16.40;99.90
5846;DHT22;2949;50.778;7.094;2022-12-31T07:22:37;16.30;99.90
5846;DHT22;2949;50.778;7.094;2022-12-31T07:25:03;16.30;99.90
5846;DHT22;2949;50.778;7.094;2022-12-31T07:27:47;16.30;99.90
5846;DHT22;2949;50.778;7.094;2022-12-31T07:30:19;16.30;99.90
5846;DHT22;2949;50.778;7.094;2022-12-31T07:43:40;16.20;99.90
5846;DHT22;2949;50.778;7.094;2022-12-31T07:48:46;16.20;99.90
5846;DHT22;2949;50.778;7.094;2022-12-31T07:51:11;16.30;99.90
5846;DHT22;2949;50.778;7.094;2022-12-31T07:53:37;16.30;99.90
5846;DHT22;2949;50.778;7.094;2022-12-31T07:56:05;16.40;99.90
5846;DHT22;2949;50.778;7.094;2022-12-31T07:58:57;16.30;99.90
5846;DHT22;2949;50.778;7.094;2022-12-31T08:01:32;16.40;99.90
5846;DHT22;2949;50.778;7.094;2022-12-31T08:06:36;16.50;99.90
5846;DHT22;2949;50.778;7.094;2022-12-31T08:11:44;16.50;99.90
5846;DHT22;2949;50.778;7.094;2022-12-31T08:14:14;16.40;99.90
5846;DHT22;2949;50.778;7.094;2022-12-31T08:16:40;16.50;99.90
5846;DHT22;2949;50.778;7.094;2022-12-31T08:19:05;16.50;99.90
5846;DHT22;2949;50.778;7.094;2022-12-31T08:21:37;16.40;99.90
5846;DHT22;2949;50.778;7.094;2022-12-31T08:27:46;16.50;99.90
5846;DHT22;2949;50.778;7.094;2022-12-31T08:30:09;16.60;99.90
5846;DHT22;2949;50.778;7.094;2022-12-31T08:32:38;16.60;99.90
5846;DHT22;2949;50.778;7.094;2022-12-31T08:37:43;16.70;99.90
5846;DHT22;2949;50.778;7.094;2022-12-31T08:40:27;16.70;99.90
5846;DHT22;2949;50.778;7.094;2022-12-31T08:45:39;16.70;99.90
5846;DHT22;2949;50.778;7.094;2022-12-31T08:50:32;16.80;99.90
5846;DHT22;2949;50.778;7.094;2022-12-31T08:52:57;16.80;99.90
5846;DHT22;2949;50.778;7.094;2022-12-31T08:55:23;16.90;99.90
5846;DHT22;2949;50.778;7.094;2022-12-31T09:00:34;17.00;99.90
5846;DHT22;2949;50.778;7.094;2022-12-31T09:06:10;17.10;99.90
5846;DHT22;2949;50.778;7.094;2022-12-31T09:11:54;17.20;99.90
5846;DHT22;2949;50.778;7.094;2022-12-31T09:17:08;17.20;99.90
5846;DHT22;2949;50.778;7.094;2022-12-31T09:19:37;17.20;99.90
5846;DHT22;2949;50.778;7.094;2022-12-31T09:22:02;17.20;99.90
5846;DHT22;2949;50.778;7.094;2022-12-31T09:24:28;17.30;99.90
5846;DHT22;2949;50.778;7.094;2022-12-31T09:27:13;17.30;99.90
5846;DHT22;2949;50.778;7.094;2022-12-31T09:29:58;17.30;99.90
5846;DHT22;2949;50.778;7.094;2022-12-31T09:37:48;17.60;99.90
5846;DHT22;2949;50.778;7.094;2022-12-31T09:40:34;17.70;99.90
5846;DHT22;2949;50.778;7.094;2022-12-31T09:52:13;17.90;99.90
5846;DHT22;2949;50.778;7.094;2022-12-31T09:55:12;17.80;99.90
5846;DHT22;2949;50.778;7.094;2022-12-31T10:00:42;17.70;99.90
5846;DHT22;2949;50.778;7.094;2022-12-31T10:11:58;17.60;99.90
5846;DHT22;2949;50.778;7.094;2022-12-31T10:37:03;17.90;99.90
5846;DHT22;2949;50.778;7.094;2022-12-31T10:57:10;17.90;99.90
5846;DHT22;2949;50.778;7.094;2022-12-31T11:03:07;17.90;99.90
5846;DHT22;2949;50.778;7.094;2022-12-31T11:28:00;18.00;99.90
5846;DHT22;2949;50.778;7.094;2022-12-31T11:36:35;18.20;99.90
5846;DHT22;2949;50.778;7.094;2022-12-31T11:39:33;18.20;99.90
5846;DHT22;2949;50.778;7.094;2022-12-31T11:50:37;18.00;99.90
5846;DHT22;2949;50.778;7.094;2022-12-31T11:56:16;17.90;99.90
5846;DHT22;2949;50.778;7.094;2022-12-31T11:58:46;17.80;99.90
5846;DHT22;2949;50.778;7.094;2022-12-31T12:03:52;17.60;99.90
5846;DHT22;2949;50.778;7.094;2022-12-31T12:06:24;17.60;99.90
5846;DHT22;2949;50.778;7.094;2022-12-31T12:08:50;17.60;99.90
5846;DHT22;2949;50.778;7.094;2022-12-31T12:11:27;17.60;99.90
5846;DHT22;2949;50.778;7.094;2022-12-31T12:13:54;17.60;99.90
5846;DHT22;2949;50.778;7.094;2022-12-31T12:16:21;17.70;99.90
5846;DHT22;2949;50.778;7.094;2022-12-31T12:19:06;17.70;99.90
5846;DHT22;2949;50.778;7.094;2022-12-31T12:21:33;17.80;99.90
5846;DHT22;2949;50.778;7.094;2022-12-31T12:24:04;17.80;99.90
5846;DHT22;2949;50.778;7.094;2022-12-31T12:32:00;17.90;99.90
5846;DHT22;2949;50.778;7.094;2022-12-31T12:34:38;18.00;99.90
5846;DHT22;2949;50.778;7.094;2022-12-31T12:37:15;18.10;99.90
5846;DHT22;2949;50.778;7.094;2022-12-31T12:39:55;18.10;99.90
5846;DHT22;2949;50.778;7.094;2022-12-31T12:42:22;18.30;99.90
5846;DHT22;2949;50.778;7.094;2022-12-31T12:45:00;18.40;99.90
5846;DHT22;2949;50.778;7.094;2022-12-31T12:47:27;18.40;99.90
5846;DHT22;2949;50.778;7.094;2022-12-31T12:49:55;18.40;99.90
5846;DHT22;2949;50.778;7.094;2022-12-31T13:22:58;17.70;99.90
5846;DHT22;2949;50.778;7.094;2022-12-31T13:25:57;17.70;99.90
5846;DHT22;2949;50.778;7.094;2022-12-31T13:28:24;17.60;99.90
5846;DHT22;2949;50.778;7.094;2022-12-31T13:31:06;17.60;99.90
5846;DHT22;2949;50.778;7.094;2022-12-31T13:33:37;17.50;99.90
5846;DHT22;2949;50.778;7.094;2022-12-31T13:36:17;17.50;99.90
5846;DHT22;2949;50.778;7.094;2022-12-31T13:38:52;17.50;99.90
5846;DHT22;2949;50.778;7.094;2022-12-31T13:41:39;17.50;99.90
5846;DHT22;2949;50.778;7.094;2022-12-31T13:44:23;17.40;99.90
5846;DHT22;2949;50.778;7.094;2022-12-31T13:46:55;17.40;99.90
5846;DHT22;2949;50.778;7.094;2022-12-31T13:49:36;17.40;99.90
5846;DHT22;2949;50.778;7.094;2022-12-31T13:52:20;17.40;99.90
5846;DHT22;2949;50.778;7.094;2022-12-31T14:00:21;17.50;99.90
5846;DHT22;2949;50.778;7.094;2022-12-31T14:03:13;17.40;99.90
5846;DHT22;2949;50.778;7.094;2022-12-31T14:08:46;17.30;99.90
5846;DHT22;2949;50.778;7.094;2022-12-31T14:11:51;17.30;99.90
5846;DHT22;2949;50.778;7.094;2022-12-31T14:15:44;17.20;99.90
5846;DHT22;2949;50.778;7.094;2022-12-31T14:18:23;17.20;99.90
5846;DHT22;2949;50.778;7.094;2022-12-31T14:21:02;17.10;99.90
5846;DHT22;2949;50.778;7.094;2022-12-31T14:26:37;17.10;99.90
5846;DHT22;2949;50.778;7.094;2022-12-31T14:40:27;17.30;99.90
5846;DHT22;2949;50.778;7.094;2022-12-31T14:46:42;17.40;99.90
5846;DHT22;2949;50.778;7.094;2022-12-31T14:51:30;17.30;99.90
5846;DHT22;2949;50.778;7.094;2022-12-31T14:53:58;17.20;99.90
5846;DHT22;2949;50.778;7.094;2022-12-31T14:58:58;16.90;99.90
5846;DHT22;2949;50.778;7.094;2022-12-31T15:01:25;16.80;99.90
5846;DHT22;2949;50.778;7.094;2022-12-31T15:03:52;16.80;99.90
5846;DHT22;2949;50.778;7.094;2022-12-31T15:14:47;16.60;99.90
5846;DHT22;2949;50.778;7.094;2022-12-31T15:22:50;16.30;99.90
5846;DHT22;2949;50.778;7.094;2022-12-31T15:27:57;16.40;99.90
5846;DHT22;2949;50.778;7.094;2022-12-31T15:30:43;16.30;99.90
5846;DHT22;2949;50.778;7.094;2022-12-31T15:33:58;16.30;99.90
5846;DHT22;2949;50.778;7.094;2022-12-31T15:36:16;16.30;99.90
5846;DHT22;2949;50.778;7.094;2022-12-31T15:38:43;16.40;99.90
5846;DHT22;2949;50.778;7.094;2022-12-31T15:46:27;16.20;99.90
5846;DHT22;2949;50.778;7.094;2022-12-31T15:49:01;16.10;99.90
5846;DHT22;2949;50.778;7.094;2022-12-31T15:51:52;16.00;99.90
5846;DHT22;2949;50.778;7.094;2022-12-31T15:54:48;16.00;99.90
5846;DHT22;2949;50.778;7.094;2022-12-31T15:57:32;16.00;99.90
5846;DHT22;2949;50.778;7.094;2022-12-31T16:00:04;16.00;99.90
5846;DHT22;2949;50.778;7.094;2022-12-31T16:02:40;16.00;99.90
5846;DHT22;2949;50.778;7.094;2022-12-31T16:05:36;16.00;99.90
5846;DHT22;2949;50.778;7.094;2022-12-31T16:08:03;16.00;99.90
5846;DHT22;2949;50.778;7.094;2022-12-31T16:10:30;16.00;99.90
5846;DHT22;2949;50.778;7.094;2022-12-31T16:12:57;16.00;99.90
5846;DHT22;2949;50.778;7.094;2022-12-31T16:15:27;16.00;99.90
5846;DHT22;2949;50.778;7.094;2022-12-31T16:18:03;15.90;99.90
5846;DHT22;2949;50.778;7.094;2022-12-31T16:20:30;15.80;99.90
5846;DHT22;2949;50.778;7.094;2022-12-31T16:22:59;15.80;99.90
5846;DHT22;2949;50.778;7.094;2022-12-31T16:25:29;15.80;99.90
5846;DHT22;2949;50.778;7.094;2022-12-31T16:27:55;15.80;99.90
5846;DHT22;2949;50.778;7.094;2022-12-31T16:30:28;15.90;99.90
5846;DHT22;2949;50.778;7.094;2022-12-31T16:33:03;15.80;99.90
5846;DHT22;2949;50.778;7.094;2022-12-31T16:35:35;15.80;99.90
5846;DHT22;2949;50.778;7.094;2022-12-31T16:38:08;15.80;99.90
5846;DHT22;2949;50.778;7.094;2022-12-31T16:46:32;15.70;99.90
5846;DHT22;2949;50.778;7.094;2022-12-31T16:49:00;15.70;99.90
5846;DHT22;2949;50.778;7.094;2022-12-31T16:51:30;15.70;99.90
5846;DHT22;2949;50.778;7.094;2022-12-31T16:53:57;15.70;99.90
5846;DHT22;2949;50.778;7.094;2022-12-31T16:56:33;15.70;99.90
5846;DHT22;2949;50.778;7.094;2022-12-31T16:59:02;15.60;99.90
5846;DHT22;2949;50.778;7.094;2022-12-31T17:01:32;15.70;99.90
5846;DHT22;2949;50.778;7.094;2022-12-31T17:04:01;15.60;99.90
5846;DHT22;2949;50.778;7.094;2022-12-31T17:06:27;15.60;99.90
5846;DHT22;2949;50.778;7.094;2022-12-31T17:16:32;15.50;99.90
5846;DHT22;2949;50.778;7.094;2022-12-31T17:18:58;15.60;99.90
5846;DHT22;2949;50.778;7.094;2022-12-31T17:21:27;15.60;99.90
5846;DHT22;2949;50.778;7.094;2022-12-31T17:24:02;15.60;99.90
5846;DHT22;2949;50.778;7.094;2022-12-31T17:26:33;15.70;99.90
5846;DHT22;2949;50.778;7.094;2022-12-31T17:29:01;15.60;99.90
5846;DHT22;2949;50.778;7.094;2022-12-31T17:31:34;15.60;99.90
5846;DHT22;2949;50.778;7.094;2022-12-31T17:36:59;15.60;99.90
5846;DHT22;2949;50.778;7.094;2022-12-31T17:39:31;15.70;99.90
5846;DHT22;2949;50.778;7.094;2022-12-31T17:42:03;15.80;99.90
5846;DHT22;2949;50.778;7.094;2022-12-31T17:44:30;15.80;99.90
5846;DHT22;2949;50.778;7.094;2022-12-31T17:46:58;15.60;99.90
5846;DHT22;2949;50.778;7.094;2022-12-31T17:49:29;15.60;99.90
5846;DHT22;2949;50.778;7.094;2022-12-31T17:51:55;15.50;99.90
5846;DHT22;2949;50.778;7.094;2022-12-31T17:54:20;15.40;99.90
5846;DHT22;2949;50.778;7.094;2022-12-31T17:56:46;15.30;99.90
5846;DHT22;2949;50.778;7.094;2022-12-31T17:59:31;15.40;99.90
5846;DHT22;2949;50.778;7.094;2022-12-31T18:02:00;15.30;99.90
5846;DHT22;2949;50.778;7.094;2022-12-31T18:04:26;15.30;99.90
5846;DHT22;2949;50.778;7.094;2022-12-31T18:06:52;15.20;99.90
5846;DHT22;2949;50.778;7.094;2022-12-31T18:09:17;15.10;99.90
5846;DHT22;2949;50.778;7.094;2022-12-31T18:11:44;15.20;99.90
5846;DHT22;2949;50.778;7.094;2022-12-31T18:14:13;15.20;99.90
5846;DHT22;2949;50.778;7.094;2022-12-31T18:16:39;15.20;99.90
5846;DHT22;2949;50.778;7.094;2022-12-31T18:19:13;15.20;99.90
5846;DHT22;2949;50.778;7.094;2022-12-31T18:25:02;15.10;99.90
5846;DHT22;2949;50.778;7.094;2022-12-31T18:27:28;15.20;99.90
5846;DHT22;2949;50.778;7.094;2022-12-31T18:29:55;15.10;99.90
5846;DHT22;2949;50.778;7.094;2022-12-31T18:32:26;15.10;99.90
5846;DHT22;2949;50.778;7.094;2022-12-31T18:34:52;15.10;99.90
5846;DHT22;2949;50.778;7.094;2022-12-31T18:37:19;15.10;99.90
5846;DHT22;2949;50.778;7.094;2022-12-31T18:39:45;15.10;99.90
5846;DHT22;2949;50.778;7.094;2022-12-31T18:42:12;15.10;99.90
5846;DHT22;2949;50.778;7.094;2022-12-31T18:44:39;15.10;99.90
5846;DHT22;2949;50.778;7.094;2022-12-31T18:47:13;15.20;99.90
5846;DHT22;2949;50.778;7.094;2022-12-31T18:49:42;15.20;99.90
5846;DHT22;2949;50.778;7.094;2022-12-31T18:52:14;15.10;99.90
5846;DHT22;2949;50.778;7.094;2022-12-31T18:54:40;15.10;99.90
5846;DHT22;2949;50.778;7.094;2022-12-31T18:57:07;15.00;99.90
5846;DHT22;2949;50.778;7.094;2022-12-31T18:59:44;15.00;99.90
5846;DHT22;2949;50.778;7.094;2022-12-31T19:02:19;15.00;99.90
5846;DHT22;2949;50.778;7.094;2022-12-31T19:04:46;15.00;99.90
5846;DHT22;2949;50.778;7.094;2022-12-31T19:07:11;15.00;99.90
5846;DHT22;2949;50.778;7.094;2022-12-31T19:09:37;15.00;99.90
5846;DHT22;2949;50.778;7.094;2022-12-31T19:12:03;15.00;99.90
5846;DHT22;2949;50.778;7.094;2022-12-31T19:14:29;15.00;99.90
5846;DHT22;2949;50.778;7.094;2022-12-31T19:16:55;15.00;99.90
5846;DHT22;2949;50.778;7.094;2022-12-31T19:19:23;15.00;99.90
5846;DHT22;2949;50.778;7.094;2022-12-31T19:21:48;15.00;99.90
5846;DHT22;2949;50.778;7.094;2022-12-31T19:24:18;15.00;99.90
5846;DHT22;2949;50.778;7.094;2022-12-31T19:26:44;15.00;99.90
5846;DHT22;2949;50.778;7.094;2022-12-31T19:29:29;15.00;99.90
5846;DHT22;2949;50.778;7.094;2022-12-31T19:31:55;15.00;99.90
5846;DHT22;2949;50.778;7.094;2022-12-31T19:34:22;15.00;99.90
5846;DHT22;2949;50.778;7.094;2022-12-31T19:36:47;15.00;99.90
5846;DHT22;2949;50.778;7.094;2022-12-31T19:39:18;15.10;99.90
5846;DHT22;2949;50.778;7.094;2022-12-31T19:41:45;15.10;99.90
5846;DHT22;2949;50.778;7.094;2022-12-31T19:44:14;15.20;99.90
5846;DHT22;2949;50.778;7.094;2022-12-31T19:46:40;15.20;99.90
5846;DHT22;2949;50.778;7.094;2022-12-31T19:49:05;15.20;99.90
5846;DHT22;2949;50.778;7.094;2022-12-31T19:51:31;15.20;99.90
5846;DHT22;2949;50.778;7.094;2022-12-31T19:53:57;15.20;99.90
5846;DHT22;2949;50.778;7.094;2022-12-31T19:56:22;15.20;99.90
5846;DHT22;2949;50.778;7.094;2022-12-31T19:58:48;15.10;99.90
5846;DHT22;2949;50.778;7.094;2022-12-31T20:01:22;15.10;99.90
5846;DHT22;2949;50.778;7.094;2022-12-31T20:03:48;15.20;99.90
5846;DHT22;2949;50.778;7.094;2022-12-31T20:06:14;15.20;99.90
5846;DHT22;2949;50.778;7.094;2022-12-31T20:08:40;15.30;99.90
5846;DHT22;2949;50.778;7.094;2022-12-31T20:11:19;15.30;99.90
5846;DHT22;2949;50.778;7.094;2022-12-31T20:13:46;15.40;99.90
5846;DHT22;2949;50.778;7.094;2022-12-31T20:16:14;15.30;99.90
5846;DHT22;2949;50.778;7.094;2022-12-31T20:18:42;15.30;99.90
5846;DHT22;2949;50.778;7.094;2022-12-31T20:21:10;15.20;99.90
5846;DHT22;2949;50.778;7.094;2022-12-31T20:23:36;15.10;99.90
5846;DHT22;2949;50.778;7.094;2022-12-31T20:26:01;15.10;99.90
5846;DHT22;2949;50.778;7.094;2022-12-31T20:28:27;15.20;99.90
5846;DHT22;2949;50.778;7.094;2022-12-31T20:30:53;15.30;99.90
5846;DHT22;2949;50.778;7.094;2022-12-31T20:33:19;15.30;99.90
5846;DHT22;2949;50.778;7.094;2022-12-31T20:35:45;15.20;99.90
5846;DHT22;2949;50.778;7.094;2022-12-31T20:38:10;15.20;99.90
5846;DHT22;2949;50.778;7.094;2022-12-31T20:40:36;15.20;99.90
5846;DHT22;2949;50.778;7.094;2022-12-31T20:43:01;15.10;99.90
5846;DHT22;2949;50.778;7.094;2022-12-31T20:45:27;15.10;99.90
5846;DHT22;2949;50.778;7.094;2022-12-31T20:47:52;15.10;99.90
5846;DHT22;2949;50.778;7.094;2022-12-31T20:50:18;15.10;99.90
5846;DHT22;2949;50.778;7.094;2022-12-31T20:52:43;15.10;99.90
5846;DHT22;2949;50.778;7.094;2022-12-31T20:55:10;15.00;99.90
5846;DHT22;2949;50.778;7.094;2022-12-31T20:57:38;15.00;99.90
5846;DHT22;2949;50.778;7.094;2022-12-31T21:00:04;15.00;99.90
5846;DHT22;2949;50.778;7.094;2022-12-31T21:02:30;14.90;99.90
5846;DHT22;2949;50.778;7.094;2022-12-31T21:04:56;14.90;99.90
5846;DHT22;2949;50.778;7.094;2022-12-31T21:07:21;14.80;99.90
5846;DHT22;2949;50.778;7.094;2022-12-31T21:09:47;14.70;99.90
5846;DHT22;2949;50.778;7.094;2022-12-31T21:12:13;14.70;99.90